createdAt,value
2023-03-19T00:00:34.014Z,100750.56
2023-03-19T00:03:01.063Z,100759.56
2023-03-19T00:05:27.611Z,100751.63
2023-03-19T00:07:54.091Z,100756.69
2023-03-19T00:10:21.282Z,100752.69
2023-03-19T00:12:47.758Z,100749.19
2023-03-19T00:15:15.378Z,100745.53
2023-03-19T00:17:43.001Z,100745.53
2023-03-19T00:20:11.684Z,100749.44
2023-03-19T00:22:38.415Z,100750.19
2023-03-19T00:25:05.480Z,100751.81
2023-03-19T00:27:32.012Z,100760.16
2023-03-19T00:29:58.483Z,100764.47
2023-03-19T00:32:25.721Z,100764.44
2023-03-19T00:34:52.868Z,100761.25
2023-03-19T00:37:19.342Z,100764.38
2023-03-19T00:39:45.806Z,100782.31
2023-03-19T00:42:12.982Z,100787.47
2023-03-19T00:44:39.500Z,100785.50
2023-03-19T00:47:07.281Z,100791.41
2023-03-19T00:49:33.774Z,100796.19
2023-03-19T00:52:00.304Z,100800.59
2023-03-19T00:54:27.424Z,100791.06
2023-03-19T00:56:53.932Z,100778.28
2023-03-19T00:59:20.601Z,100779.47
2023-03-19T01:01:47.210Z,100773.09
2023-03-19T01:04:14.874Z,100763.91
2023-03-19T01:06:41.804Z,100757.09
2023-03-19T01:09:08.390Z,100749.19
2023-03-19T01:11:35.219Z,100759.56
2023-03-19T01:14:02.790Z,100763.13
2023-03-19T01:16:29.521Z,100760.78
2023-03-19T01:18:56.086Z,100761.19
2023-03-19T01:21:22.609Z,100766.34
2023-03-19T01:23:49.283Z,100767.66
2023-03-19T01:26:16.631Z,100766.50
2023-03-19T01:28:43.447Z,100766.91
2023-03-19T01:31:10.649Z,100762.19
2023-03-19T01:33:37.643Z,100765.38
2023-03-19T01:36:05.498Z,100750.69
2023-03-19T01:38:32.496Z,100760.72
2023-03-19T01:40:58.984Z,100756.78
2023-03-19T01:43:30.809Z,100760.78
2023-03-19T01:46:01.729Z,100758.06
2023-03-19T01:48:38.481Z,100761.25
2023-03-19T01:51:07.560Z,100758.53
2023-03-19T01:53:36.056Z,100755.38
2023-03-19T01:56:25.649Z,100756.13
2023-03-19T01:58:56.608Z,100758.13
2023-03-19T02:01:23.293Z,100749.13
2023-03-19T02:03:52.655Z,100747.56
2023-03-19T02:06:21.673Z,100738.88
2023-03-19T02:08:51.376Z,100747.63
2023-03-19T02:11:18.828Z,100740.09
2023-03-19T02:13:46.155Z,100742.88
2023-03-19T02:16:12.715Z,100736.56
2023-03-19T02:18:39.193Z,100739.34
2023-03-19T02:21:08.247Z,100746.09
2023-03-19T02:23:34.861Z,100746.88
2023-03-19T02:26:08.968Z,100743.81
2023-03-19T02:28:39.743Z,100744.59
2023-03-19T02:31:07.465Z,100743.81
2023-03-19T02:33:34.364Z,100739.81
2023-03-19T02:36:03.322Z,100740.22
2023-03-19T02:38:32.599Z,100739.81
2023-03-19T02:41:05.376Z,100742.19
2023-03-19T02:43:34.229Z,100746.94
2023-03-19T02:46:06.327Z,100740.97
2023-03-19T02:48:33.126Z,100742.97
2023-03-19T02:51:02.325Z,100739.00
2023-03-19T02:53:28.741Z,100740.63
2023-03-19T02:55:55.631Z,100741.41
2023-03-19T02:58:22.169Z,100735.88
2023-03-19T03:00:48.697Z,100736.25
2023-03-19T03:03:15.235Z,100732.31
2023-03-19T03:05:41.803Z,100730.38
2023-03-19T03:08:09.302Z,100739.47
2023-03-19T03:10:35.983Z,100735.88
2023-03-19T03:13:02.501Z,100738.66
2023-03-19T03:15:29.668Z,100738.66
2023-03-19T03:17:56.878Z,100730.34
2023-03-19T03:20:24.827Z,100741.03
2023-03-19T03:22:54.263Z,100741.78
2023-03-19T03:25:21.300Z,100737.06
2023-03-19T03:27:48.057Z,100745.34
2023-03-19T03:30:16.161Z,100741.38
2023-03-19T03:32:43.447Z,100733.09
2023-03-19T03:35:18.067Z,100740.63
2023-03-19T03:37:44.515Z,100747.69
2023-03-19T03:40:11.504Z,100745.34
2023-03-19T03:42:38.026Z,100743.38
2023-03-19T03:45:04.964Z,100742.59
2023-03-19T03:47:31.528Z,100750.09
2023-03-19T03:49:58.031Z,100752.13
2023-03-19T03:52:26.625Z,100750.91
2023-03-19T03:54:53.085Z,100746.50
2023-03-19T03:57:19.535Z,100754.03
2023-03-19T03:59:46.472Z,100748.47
2023-03-19T04:02:12.976Z,100747.66
2023-03-19T04:04:39.414Z,100748.44
2023-03-19T04:07:06.714Z,100753.22
2023-03-19T04:09:33.164Z,100754.78
2023-03-19T04:12:00.296Z,100767.59
2023-03-19T04:14:35.648Z,100764.88
2023-03-19T04:17:02.040Z,100759.28
2023-03-19T04:19:28.538Z,100772.34
2023-03-19T04:21:57.578Z,100766.00
2023-03-19T04:24:24.229Z,100768.81
2023-03-19T04:26:51.128Z,100769.16
2023-03-19T04:29:18.688Z,100764.41
2023-03-19T04:31:45.786Z,100766.38
2023-03-19T04:34:12.935Z,100772.28
2023-03-19T04:36:39.419Z,100775.53
2023-03-19T04:39:05.983Z,100779.03
2023-03-19T04:41:38.627Z,100780.19
2023-03-19T04:44:05.213Z,100797.59
2023-03-19T04:46:31.809Z,100798.81
2023-03-19T04:48:59.800Z,100791.25
2023-03-19T04:51:26.320Z,100794.44
2023-03-19T04:53:52.825Z,100798.00
2023-03-19T04:56:19.366Z,100803.94
2023-03-19T04:58:46.129Z,100807.50
2023-03-19T05:01:13.208Z,100807.03
2023-03-19T05:03:44.344Z,100806.97
2023-03-19T05:06:11.756Z,100802.59
2023-03-19T05:08:38.338Z,100808.50
2023-03-19T05:11:05.244Z,100805.72
2023-03-19T05:13:31.671Z,100804.50
2023-03-19T05:15:58.200Z,100802.19
2023-03-19T05:18:24.695Z,100797.41
2023-03-19T05:20:51.220Z,100793.03
2023-03-19T05:23:17.996Z,100808.09
2023-03-19T05:25:50.365Z,100799.72
2023-03-19T05:28:17.403Z,100813.00
2023-03-19T05:30:44.092Z,100812.13
2023-03-19T05:33:10.695Z,100804.63
2023-03-19T05:35:37.807Z,100814.91
2023-03-19T05:38:04.338Z,100810.13
2023-03-19T05:40:32.020Z,100823.59
2023-03-19T05:42:58.599Z,100826.06
2023-03-19T05:45:25.662Z,100824.91
2023-03-19T05:47:52.125Z,100832.81
2023-03-19T05:50:19.350Z,100830.03
2023-03-19T05:52:45.985Z,100834.38
2023-03-19T05:55:12.506Z,100841.91
2023-03-19T05:57:39.564Z,100837.50
2023-03-19T06:00:07.649Z,100836.25
2023-03-19T06:02:35.437Z,100845.44
2023-03-19T06:05:02.144Z,100833.81
2023-03-19T06:07:28.622Z,100839.31
2023-03-19T06:09:55.241Z,100846.19
2023-03-19T06:12:22.004Z,100843.59
2023-03-19T06:14:48.493Z,100847.66
2023-03-19T06:17:15.351Z,100850.28
2023-03-19T06:19:41.824Z,100852.72
2023-03-19T06:22:08.946Z,100855.91
2023-03-19T06:24:40.932Z,100864.66
2023-03-19T06:27:07.729Z,100866.63
2023-03-19T06:29:34.199Z,100871.50
2023-03-19T06:32:00.711Z,100865.63
2023-03-19T06:34:27.570Z,100867.59
2023-03-19T06:37:20.369Z,100872.50
2023-03-19T06:39:46.900Z,100874.88
2023-03-19T06:42:13.464Z,100873.28
2023-03-19T06:44:40.014Z,100879.69
2023-03-19T06:47:08.521Z,100884.50
2023-03-19T06:49:35.448Z,100886.84
2023-03-19T06:52:02.014Z,100883.66
2023-03-19T06:54:28.501Z,100893.13
2023-03-19T06:56:54.992Z,100891.56
2023-03-19T06:59:21.430Z,100897.50
2023-03-19T07:01:47.893Z,100904.16
2023-03-19T07:04:14.434Z,100904.22
2023-03-19T07:06:40.908Z,100900.97
2023-03-19T07:09:07.869Z,100903.75
2023-03-19T07:11:35.909Z,100908.16
2023-03-19T07:14:02.967Z,100914.09
2023-03-19T07:16:29.589Z,100917.63
2023-03-19T07:18:56.831Z,100914.44
2023-03-19T07:21:23.753Z,100910.50
2023-03-19T07:23:52.747Z,100910.47
2023-03-19T07:26:19.316Z,100910.44
2023-03-19T07:28:46.053Z,100902.06
2023-03-19T07:31:13.049Z,100909.63
2023-03-19T07:33:39.584Z,100910.03
2023-03-19T07:36:07.140Z,100911.53
2023-03-19T07:38:33.702Z,100922.25
2023-03-19T07:41:02.814Z,100909.56
2023-03-19T07:43:30.238Z,100922.16
2023-03-19T07:45:56.871Z,100920.53
2023-03-19T07:48:23.367Z,100929.22
2023-03-19T07:50:51.303Z,100912.63
2023-03-19T07:53:18.428Z,100923.59
2023-03-19T07:55:44.913Z,100921.94
2023-03-19T07:58:11.712Z,100933.47
2023-03-19T08:00:38.183Z,100936.34
2023-03-19T08:03:04.706Z,100937.84
2023-03-19T08:05:31.196Z,100937.75
2023-03-19T08:07:57.697Z,100936.59
2023-03-19T08:10:24.198Z,100937.09
2023-03-19T08:12:50.885Z,100938.66
2023-03-19T08:15:17.653Z,100942.19
2023-03-19T08:17:56.585Z,100944.81
2023-03-19T08:20:23.113Z,100954.44
2023-03-19T08:22:51.030Z,100945.34
2023-03-19T08:25:17.913Z,100952.00
2023-03-19T08:27:44.390Z,100960.34
2023-03-19T08:30:11.845Z,100957.53
2023-03-19T08:32:38.342Z,100958.38
2023-03-19T08:35:06.093Z,100963.59
2023-03-19T08:37:32.756Z,100965.16
2023-03-19T08:39:59.231Z,100971.78
2023-03-19T08:42:25.708Z,100965.50
2023-03-19T08:44:52.150Z,100968.69
2023-03-19T08:47:18.856Z,100971.03
2023-03-19T08:49:45.351Z,100976.69
2023-03-19T08:52:11.968Z,100975.88
2023-03-19T08:54:38.444Z,100979.84
2023-03-19T08:57:04.966Z,100979.03
2023-03-19T08:59:34.069Z,100985.38
2023-03-19T09:02:01.670Z,100976.53
2023-03-19T09:04:28.412Z,100979.25
2023-03-19T09:06:55.053Z,100982.38
2023-03-19T09:09:24.028Z,100991.50
2023-03-19T09:11:50.822Z,100992.25
2023-03-19T09:14:19.860Z,100985.78
2023-03-19T09:16:46.767Z,100987.94
2023-03-19T09:19:13.297Z,100989.50
2023-03-19T09:21:39.937Z,100983.84
2023-03-19T09:24:06.830Z,100982.84
2023-03-19T09:26:33.365Z,100991.16
2023-03-19T09:28:59.833Z,100990.38
2023-03-19T09:31:29.089Z,100986.25
2023-03-19T09:33:56.131Z,100979.31
2023-03-19T09:36:22.589Z,100993.25
2023-03-19T09:38:49.064Z,100995.19
2023-03-19T09:41:15.486Z,100992.22
2023-03-19T09:44:04.876Z,101001.69
2023-03-19T09:46:51.394Z,101001.03
2023-03-19T09:49:34.046Z,100998.59
2023-03-19T09:52:38.975Z,101008.66
2023-03-19T09:55:28.646Z,101003.34
2023-03-19T09:57:57.376Z,100999.94
2023-03-19T10:00:28.889Z,101013.72
2023-03-19T10:03:25.441Z,101012.91
2023-03-19T10:06:06.897Z,101020.28
2023-03-19T10:08:59.935Z,101021.31
2023-03-19T10:11:54.246Z,101020.69
2023-03-19T10:14:27.180Z,101039.50
2023-03-19T10:16:58.175Z,101021.22
2023-03-19T10:19:40.852Z,101024.66
2023-03-19T10:22:16.759Z,101027.91
2023-03-19T10:24:46.598Z,101021.41
2023-03-19T10:27:16.168Z,101026.31
2023-03-19T10:29:43.238Z,101028.81
2023-03-19T10:32:20.012Z,101019.72
2023-03-19T10:34:50.442Z,101027.16
2023-03-19T10:37:20.451Z,101029.22
2023-03-19T10:39:49.382Z,101023.47
2023-03-19T10:42:33.320Z,101024.59
2023-03-19T10:45:21.978Z,101030.88
2023-03-19T10:47:48.403Z,101037.13
2023-03-19T10:50:23.220Z,101035.28
2023-03-19T10:53:04.401Z,101040.63
2023-03-19T10:55:31.739Z,101042.63
2023-03-19T10:58:04.071Z,101039.06
2023-03-19T11:00:33.375Z,101030.06
2023-03-19T11:03:02.027Z,101034.44
2023-03-19T11:05:31.954Z,101037.22
2023-03-19T11:08:08.207Z,101039.50
2023-03-19T11:10:36.248Z,101037.50
2023-03-19T11:13:15.991Z,101036.44
2023-03-19T11:15:42.658Z,101037.06
2023-03-19T11:18:20.941Z,101044.25
2023-03-19T11:20:59.742Z,101039.97
2023-03-19T11:23:31.596Z,101038.09
2023-03-19T11:26:04.592Z,101044.78
2023-03-19T11:28:34.516Z,101041.53
2023-03-19T11:31:41.688Z,101037.81
2023-03-19T11:34:46.727Z,101045.19
2023-03-19T11:37:22.520Z,101057.59
2023-03-19T11:40:27.798Z,101059.09
2023-03-19T11:43:08.756Z,101061.59
2023-03-19T11:45:54.284Z,101061.53
2023-03-19T11:48:38.397Z,101047.03
2023-03-19T11:51:09.854Z,101051.00
2023-03-19T11:53:48.965Z,101052.91
2023-03-19T11:56:39.959Z,101047.34
2023-03-19T11:59:09.399Z,101047.63
2023-03-19T12:01:57.943Z,101047.81
2023-03-19T12:04:55.509Z,101053.50
2023-03-19T12:07:30.143Z,101044.13
2023-03-19T12:10:30.195Z,101051.00
2023-03-19T12:12:59.231Z,101051.47
2023-03-19T12:15:28.471Z,101052.34
2023-03-19T12:18:10.440Z,101047.53
2023-03-19T12:20:49.034Z,101048.47
2023-03-19T12:23:33.445Z,101042.72
2023-03-19T12:26:05.094Z,101045.28
2023-03-19T12:28:46.716Z,101037.13
2023-03-19T12:31:36.548Z,101034.41
2023-03-19T12:34:21.862Z,101028.88
2023-03-19T12:37:07.808Z,101040.31
2023-03-19T12:39:39.632Z,101044.03
2023-03-19T12:42:11.381Z,101045.25
2023-03-19T12:44:42.727Z,101049.47
2023-03-19T12:47:25.071Z,101039.56
2023-03-19T12:49:56.988Z,101045.81
2023-03-19T12:52:44.614Z,101052.97
2023-03-19T12:55:27.216Z,101043.84
2023-03-19T12:57:58.099Z,101043.09
2023-03-19T13:00:24.520Z,101037.25
2023-03-19T13:03:01.896Z,101035.22
2023-03-19T13:05:41.640Z,101044.16
2023-03-19T13:08:20.598Z,101051.31
2023-03-19T13:10:47.044Z,101050.88
2023-03-19T13:13:13.521Z,101051.66
2023-03-19T13:15:47.834Z,101046.06
2023-03-19T13:18:34.978Z,101047.88
2023-03-19T13:21:21.889Z,101047.94
2023-03-19T13:23:52.604Z,101045.81
2023-03-19T13:26:19.522Z,101039.63
2023-03-19T13:29:14.725Z,101041.25
2023-03-19T13:31:41.728Z,101045.09
2023-03-19T13:34:21.443Z,101030.63
2023-03-19T13:37:16.258Z,101034.84
2023-03-19T13:39:44.442Z,101035.66
2023-03-19T13:42:20.018Z,101034.25
2023-03-19T13:44:51.556Z,101043.31
2023-03-19T13:47:28.837Z,101041.94
2023-03-19T13:50:20.423Z,101038.00
2023-03-19T13:52:50.392Z,101027.47
2023-03-19T13:55:25.824Z,101022.47
2023-03-19T13:58:16.952Z,101026.31
2023-03-19T14:00:43.494Z,101017.31
2023-03-19T14:03:22.318Z,101026.88
2023-03-19T14:05:51.074Z,101024.81
2023-03-19T14:08:51.818Z,101023.13
2023-03-19T14:11:29.063Z,101033.94
2023-03-19T14:13:56.296Z,101024.25
2023-03-19T14:16:26.682Z,101025.53
2023-03-19T14:18:57.531Z,101015.63
2023-03-19T14:21:33.793Z,101021.19
2023-03-19T14:24:55.925Z,101026.25
2023-03-19T14:27:30.587Z,101030.53
2023-03-19T14:30:00.589Z,101027.28
2023-03-19T14:32:35.031Z,101023.47
2023-03-19T14:35:05.866Z,101035.81
2023-03-19T14:37:48.949Z,101029.81
2023-03-19T14:40:24.502Z,101031.19
2023-03-19T14:43:06.479Z,101026.28
2023-03-19T14:45:38.569Z,101025.94
2023-03-19T14:48:14.070Z,101029.09
2023-03-19T14:51:19.312Z,101028.16
2023-03-19T14:54:28.260Z,101023.19
2023-03-19T14:56:56.936Z,101024.50
2023-03-19T14:59:23.469Z,101029.13
2023-03-19T15:01:53.551Z,101028.63
2023-03-19T15:04:24.022Z,101030.94
2023-03-19T15:06:55.564Z,101035.00
2023-03-19T15:09:33.766Z,101035.47
2023-03-19T15:12:17.041Z,101031.75
2023-03-19T15:15:14.058Z,101026.00
2023-03-19T15:17:40.848Z,101029.81
2023-03-19T15:20:18.616Z,101030.44
2023-03-19T15:22:52.977Z,101030.69
2023-03-19T15:25:20.245Z,101029.81
2023-03-19T15:27:46.823Z,101027.91
2023-03-19T15:30:28.489Z,101034.84
2023-03-19T15:33:10.492Z,101038.63
2023-03-19T15:35:41.537Z,101037.47
2023-03-19T15:38:12.065Z,101039.03
2023-03-19T15:40:41.188Z,101035.22
2023-03-19T15:43:11.148Z,101029.06
2023-03-19T15:45:39.105Z,101033.63
2023-03-19T15:48:17.121Z,101029.13
2023-03-19T15:50:46.214Z,101043.22
2023-03-19T15:53:16.796Z,101035.41
2023-03-19T15:55:43.561Z,101043.59
2023-03-19T15:58:16.879Z,101046.00
2023-03-19T16:00:43.682Z,101043.97
2023-03-19T16:03:20.825Z,101047.88
2023-03-19T16:05:58.516Z,101053.19
2023-03-19T16:08:26.844Z,101056.69
2023-03-19T16:10:53.769Z,101066.66
2023-03-19T16:13:25.865Z,101062.78
2023-03-19T16:16:08.590Z,101061.06
2023-03-19T16:18:45.558Z,101071.00
2023-03-19T16:21:17.964Z,101064.50
2023-03-19T16:23:51.451Z,101068.88
2023-03-19T16:26:44.128Z,101067.16
2023-03-19T16:29:22.680Z,101073.97
2023-03-19T16:31:52.222Z,101073.81
2023-03-19T16:34:32.118Z,101083.50
2023-03-19T16:36:59.498Z,101077.03
2023-03-19T16:39:35.046Z,101073.63
2023-03-19T16:42:27.879Z,101083.34
2023-03-19T16:44:54.538Z,101084.66
2023-03-19T16:47:22.655Z,101083.16
2023-03-19T16:49:50.981Z,101092.09
2023-03-19T16:52:21.648Z,101093.38
2023-03-19T16:54:48.617Z,101097.81
2023-03-19T16:57:16.934Z,101096.41
2023-03-19T16:59:44.298Z,101104.78
2023-03-19T17:02:12.246Z,101105.38
2023-03-19T17:04:38.893Z,101103.38
2023-03-19T17:07:06.119Z,101105.56
2023-03-19T17:09:32.935Z,101122.03
2023-03-19T17:11:59.959Z,101111.28
2023-03-19T17:14:26.460Z,101123.84
2023-03-19T17:16:54.462Z,101141.41
2023-03-19T17:19:27.158Z,101133.88
2023-03-19T17:21:58.070Z,101144.56
2023-03-19T17:24:34.389Z,101146.09
2023-03-19T17:27:02.970Z,101147.41
2023-03-19T17:29:30.534Z,101152.94
2023-03-19T17:32:04.192Z,101155.22
2023-03-19T17:34:35.795Z,101159.94
2023-03-19T17:37:11.018Z,101155.31
2023-03-19T17:39:37.484Z,101157.78
2023-03-19T17:42:18.188Z,101165.63
2023-03-19T17:44:44.672Z,101171.19
2023-03-19T17:47:11.687Z,101172.78
2023-03-19T17:49:40.102Z,101170.78
2023-03-19T17:52:14.657Z,101174.28
2023-03-19T17:54:41.158Z,101175.50
2023-03-19T17:57:12.552Z,101173.28
2023-03-19T17:59:39.109Z,101186.56
2023-03-19T18:02:25.216Z,101184.94
2023-03-19T18:04:52.717Z,101185.00
2023-03-19T18:07:19.377Z,101192.16
2023-03-19T18:09:45.886Z,101189.84
2023-03-19T18:12:12.410Z,101194.44
2023-03-19T18:14:38.873Z,101198.34
2023-03-19T18:17:05.396Z,101204.69
2023-03-19T18:19:34.760Z,101205.75
2023-03-19T18:22:01.274Z,101207.47
2023-03-19T18:24:27.802Z,101214.91
2023-03-19T18:26:54.243Z,101213.28
2023-03-19T18:29:20.830Z,101211.78
2023-03-19T18:31:49.123Z,101221.50
2023-03-19T18:34:16.967Z,101227.13
2023-03-19T18:36:43.669Z,101225.75
2023-03-19T18:39:13.867Z,101219.53
2023-03-19T18:41:41.099Z,101231.94
2023-03-19T18:44:08.457Z,101232.44
2023-03-19T18:46:37.355Z,101237.97
2023-03-19T18:49:07.167Z,101241.22
2023-03-19T18:51:33.629Z,101234.84
2023-03-19T18:54:00.504Z,101241.16
2023-03-19T18:56:32.984Z,101249.63
2023-03-19T18:59:00.866Z,101249.69
2023-03-19T19:01:27.749Z,101250.94
2023-03-19T19:03:54.640Z,101257.59
2023-03-19T19:06:28.291Z,101262.09
2023-03-19T19:09:03.543Z,101256.97
2023-03-19T19:11:30.225Z,101265.81
2023-03-19T19:13:58.718Z,101265.59
2023-03-19T19:16:31.839Z,101269.16
2023-03-19T19:18:58.413Z,101273.94
2023-03-19T19:21:24.914Z,101275.53
2023-03-19T19:23:51.403Z,101287.47
2023-03-19T19:26:28.738Z,101278.84
2023-03-19T19:28:58.732Z,101297.97
2023-03-19T19:31:31.510Z,101294.84
2023-03-19T19:34:00.103Z,101293.00
2023-03-19T19:36:28.057Z,101308.72
2023-03-19T19:38:54.982Z,101306.50
2023-03-19T19:41:24.476Z,101314.94
2023-03-19T19:43:53.465Z,101320.97
2023-03-19T19:46:23.343Z,101320.59
2023-03-19T19:48:50.437Z,101325.75
2023-03-19T19:51:22.981Z,101323.50
2023-03-19T19:53:49.804Z,101332.72
2023-03-19T19:56:21.783Z,101331.22
2023-03-19T19:58:52.010Z,101329.13
2023-03-19T20:01:24.924Z,101337.63
2023-03-19T20:03:52.512Z,101335.38
2023-03-19T20:06:19.804Z,101335.94
2023-03-19T20:08:49.289Z,101337.91
2023-03-19T20:11:21.578Z,101342.78
2023-03-19T20:13:52.064Z,101342.78
2023-03-19T20:16:19.817Z,101341.56
2023-03-19T20:18:47.625Z,101341.56
2023-03-19T20:21:15.644Z,101345.16
2023-03-19T20:23:43.978Z,101342.38
2023-03-19T20:26:19.525Z,101353.63
2023-03-19T20:28:47.108Z,101358.88
2023-03-19T20:31:24.836Z,101360.63
2023-03-19T20:33:51.564Z,101361.16
2023-03-19T20:36:19.510Z,101370.81
2023-03-19T20:38:46.102Z,101374.88
2023-03-19T20:41:21.673Z,101375.44
2023-03-19T20:43:49.122Z,101375.88
2023-03-19T20:46:17.602Z,101377.84
2023-03-19T20:48:44.157Z,101381.00
2023-03-19T20:51:17.975Z,101381.16
2023-03-19T20:53:44.443Z,101377.63
2023-03-19T20:56:15.953Z,101378.81
2023-03-19T20:58:42.560Z,101386.72
2023-03-19T21:01:10.714Z,101377.28
2023-03-19T21:03:38.167Z,101381.84
2023-03-19T21:06:06.922Z,101382.31
2023-03-19T21:08:39.919Z,101377.50
2023-03-19T21:11:11.415Z,101394.16
2023-03-19T21:13:37.936Z,101392.00
2023-03-19T21:16:04.597Z,101395.91
2023-03-19T21:18:31.099Z,101399.81
2023-03-19T21:20:57.991Z,101401.50
2023-03-19T21:23:31.834Z,101403.91
2023-03-19T21:25:59.959Z,101402.13
2023-03-19T21:28:34.630Z,101402.25
2023-03-19T21:31:02.310Z,101401.81
2023-03-19T21:33:32.887Z,101393.22
2023-03-19T21:36:00.883Z,101397.38
2023-03-19T21:38:28.184Z,101399.25
2023-03-19T21:40:58.464Z,101400.03
2023-03-19T21:43:33.896Z,101405.34
2023-03-19T21:46:13.915Z,101406.78
2023-03-19T21:48:48.362Z,101416.75
2023-03-19T21:51:16.487Z,101422.53
2023-03-19T21:53:45.526Z,101414.59
2023-03-19T21:56:24.522Z,101424.88
2023-03-19T21:58:54.153Z,101431.72
2023-03-19T22:01:23.788Z,101423.06
2023-03-19T22:03:51.857Z,101430.22
2023-03-19T22:06:19.194Z,101430.88
2023-03-19T22:08:46.754Z,101431.72
2023-03-19T22:11:20.661Z,101429.22
2023-03-19T22:13:47.946Z,101439.34
2023-03-19T22:16:21.387Z,101433.59
2023-03-19T22:18:48.743Z,101435.84
2023-03-19T22:21:17.945Z,101437.06
2023-03-19T22:23:46.474Z,101440.63
2023-03-19T22:26:36.043Z,101444.97
2023-03-19T22:29:15.553Z,101440.97
2023-03-19T22:31:42.629Z,101455.97
2023-03-19T22:34:17.205Z,101452.19
2023-03-19T22:36:44.293Z,101451.59
2023-03-19T22:39:10.874Z,101449.34
2023-03-19T22:41:40.365Z,101454.44
2023-03-19T22:44:11.324Z,101453.09
2023-03-19T22:46:37.881Z,101454.59
2023-03-19T22:49:15.444Z,101454.38
2023-03-19T22:51:43.705Z,101454.38
2023-03-19T22:54:11.961Z,101462.56
2023-03-19T22:56:38.643Z,101461.47
2023-03-19T22:59:05.275Z,101463.44
2023-03-19T23:01:45.145Z,101473.13
2023-03-19T23:04:19.564Z,101465.06
2023-03-19T23:06:46.809Z,101468.66
2023-03-19T23:09:19.454Z,101471.78
2023-03-19T23:11:48.176Z,101475.31
2023-03-19T23:14:28.467Z,101469.41
2023-03-19T23:19:31.006Z,101471.41
2023-03-19T23:21:58.838Z,101480.06
2023-03-19T23:24:25.744Z,101479.75
2023-03-19T23:26:54.810Z,101480.97
2023-03-19T23:29:24.693Z,101491.22
2023-03-19T23:31:51.884Z,101488.16
2023-03-19T23:34:18.884Z,101489.34
2023-03-19T23:36:45.704Z,101499.94
2023-03-19T23:39:12.211Z,101502.75
2023-03-19T23:41:58.932Z,101495.38
2023-03-19T23:44:28.892Z,101500.38
2023-03-19T23:46:59.399Z,101500.31
2023-03-19T23:49:32.221Z,101507.06
2023-03-19T23:51:59.155Z,101511.53
2023-03-19T23:54:33.723Z,101507.22
2023-03-19T23:57:03.998Z,101515.44
2023-03-19T23:59:35.697Z,101512.97
